Terminal Aerodrome Forecast
Issued by NWS

Home | Current Version | Previous Version | Text Only | Print | Product List | Glossary On
Versions: 1 2 3 4 5 6 7 8 9 10 11 12 13 14 15 16 17
000
FTUS41 KGYX 201733
TAFAUG
TAF
KAUG 201733Z 2018/2118 VRB03KT P6SM FEW045
      TEMPO 2109/2111 3SM BR
     FM211400 11005KT P6SM SCT050=

USA.gov is the U.S. government's official web portal to all federal, state and local government web resources and services.